Time;durP1;ratioP1;P1;durP2;ratioP2;P2;SDS_P1;SDS_P2;PMS_P1;PMS_P2;Temp;Humidity;BMP_temperature;BMP_pressure;BME280_temperature;BME280_humidity;BME280_pressure;Samples;Min_cycle;Max_cycle;Signal;HPM_P1;HPM_P2
2022/01/17 00:01:11;;;;;;;25.20;23.70;;;;;;;-141.02;100.00;55844.97;5133840;27;20722;-75
2022/01/17 00:03:38;;;;;;;26.77;25.10;;;;;;;-141.02;100.00;55844.97;5133864;27;20196;-75
2022/01/17 00:06:05;;;;;;;26.10;24.60;;;;;;;-141.02;100.00;55844.97;5133776;27;20228;-75
2022/01/17 00:08:33;;;;;;;25.67;24.17;;;;;;;-141.02;100.00;55844.97;5133655;27;20273;-75
2022/01/17 00:11:02;;;;;;;27.83;26.03;;;;;;;-141.02;100.00;55844.97;5133365;27;20203;-75
2022/01/17 00:13:29;;;;;;;25.80;24.33;;;;;;;-141.02;100.00;55844.97;5133276;27;20757;-75
2022/01/17 00:16:04;;;;;;;25.67;24.27;;;;;;;-141.02;100.00;55844.97;5133239;27;20188;-75
2022/01/17 00:19:04;;;;;;;26.23;24.73;;;;;;;-141.02;100.00;55844.97;5133326;27;20255;-75
2022/01/17 00:21:29;;;;;;;25.63;24.13;;;;;;;-141.02;100.00;55844.97;5133221;27;20193;-75
2022/01/17 00:23:56;;;;;;;25.80;24.30;;;;;;;-141.02;100.00;55844.97;5133453;27;20693;-75
2022/01/17 00:26:24;;;;;;;26.53;24.93;;;;;;;-141.02;100.00;55844.97;5133495;27;20227;-75
2022/01/17 00:28:51;;;;;;;26.03;24.53;;;;;;;-141.02;100.00;55844.97;5133108;27;20291;-75
2022/01/17 00:31:18;;;;;;;24.10;22.70;;;;;;;-141.02;100.00;55844.97;5133396;27;20204;-75
2022/01/17 00:33:45;;;;;;;23.40;22.10;;;;;;;-141.02;100.00;55844.97;5133051;27;20285;-75
2022/01/17 00:36:12;;;;;;;23.43;22.13;;;;;;;-141.02;100.00;55844.97;5133950;27;20279;-75
2022/01/17 00:38:39;;;;;;;23.40;22.10;;;;;;;-141.02;100.00;55844.97;5132983;27;20227;-75
2022/01/17 00:41:06;;;;;;;24.33;22.93;;;;;;;-141.02;100.00;55844.97;5133825;27;20608;-75
2022/01/17 00:43:35;;;;;;;23.77;22.47;;;;;;;-141.02;100.00;55844.97;5133290;28;20245;-75
2022/01/17 00:46:02;;;;;;;25.60;24.00;;;;;;;-141.02;100.00;55844.97;5133229;28;20193;-76
2022/01/17 00:48:30;;;;;;;25.83;24.33;;;;;;;-141.02;100.00;55844.97;5132870;27;20228;-75
2022/01/17 00:50:57;;;;;;;26.47;24.97;;;;;;;-141.02;100.00;55844.97;5137324;27;20196;-75
2022/01/17 00:53:24;;;;;;;28.93;27.10;;;;;;;-141.02;100.00;55844.97;5137074;27;20714;-76
2022/01/17 00:55:51;;;;;;;26.80;25.30;;;;;;;-141.02;100.00;55844.97;5137168;27;20283;-75
2022/01/17 00:58:18;;;;;;;26.10;24.60;;;;;;;-141.02;100.00;55844.97;5137065;27;20668;-75
2022/01/17 01:00:47;;;;;;;26.20;24.60;;;;;;;-141.02;100.00;55844.97;5137073;27;20188;-75
2022/01/17 01:03:14;;;;;;;25.57;24.07;;;;;;;-141.02;100.00;55844.97;5137023;27;20206;-75
2022/01/17 01:05:41;;;;;;;26.27;24.77;;;;;;;-141.02;100.00;55844.97;5137555;27;20253;-76
2022/01/17 01:08:08;;;;;;;25.20;23.80;;;;;;;-141.02;100.00;55844.97;5137086;27;20596;-75
2022/01/17 01:10:35;;;;;;;35.90;33.47;;;;;;;-141.02;100.00;55844.97;5137206;27;20188;-75
2022/01/17 01:13:02;;;;;;;24.00;22.70;;;;;;;-141.02;100.00;55844.97;5137018;27;20224;-75
2022/01/17 01:15:45;;;;;;;24.90;23.50;;;;;;;-141.02;100.00;55844.97;5137099;27;20626;-76
2022/01/17 01:18:18;;;;;;;23.80;22.47;;;;;;;-141.02;100.00;55844.97;5136916;27;20645;-75
2022/01/17 01:21:15;;;;;;;25.23;23.77;;;;;;;-141.02;100.00;55844.97;5137005;27;20184;-75
2022/01/17 01:29:12;;;;;;;25.70;24.30;;;;;;;-141.02;100.00;55844.97;5136611;27;20183;-75
2022/01/17 01:31:45;;;;;;;25.27;23.87;;;;;;;-141.02;100.00;55844.97;5136789;27;20196;-75
2022/01/17 01:34:14;;;;;;;27.60;25.70;;;;;;;-141.02;100.00;55844.97;5136682;27;20224;-76
2022/01/17 01:36:42;;;;;;;26.60;25.10;;;;;;;-141.02;100.00;55844.97;5136897;27;20189;-75
2022/01/17 01:39:10;;;;;;;26.80;25.30;;;;;;;-141.02;100.00;55844.97;5136202;27;20200;-75
2022/01/17 01:41:42;;;;;;;26.90;25.37;;;;;;;-141.02;100.00;55844.97;5136594;27;20275;-75
2022/01/17 01:44:12;;;;;;;27.87;26.27;;;;;;;-141.02;100.00;55844.97;5136194;27;20235;-75
2022/01/17 01:46:40;;;;;;;27.17;25.63;;;;;;;-141.02;100.00;55844.97;5136219;27;20192;-75
2022/01/17 01:49:07;;;;;;;25.30;23.90;;;;;;;-141.02;100.00;55844.97;5137239;27;20197;-75
2022/01/17 01:51:36;;;;;;;27.80;26.20;;;;;;;-141.02;100.00;55844.97;5136327;27;20188;-75
2022/01/17 01:54:03;;;;;;;27.97;26.37;;;;;;;-141.02;100.00;55844.97;5136257;27;20646;-75
2022/01/17 01:56:30;;;;;;;26.10;24.60;;;;;;;-141.02;100.00;55844.97;5135922;27;20207;-75
2022/01/17 01:58:58;;;;;;;24.80;23.40;;;;;;;-141.02;100.00;55844.97;5136290;27;20253;-75
2022/01/17 02:01:25;;;;;;;27.77;26.17;;;;;;;-141.02;100.00;55844.97;5136131;27;20646;-75
2022/01/17 02:03:52;;;;;;;26.23;24.73;;;;;;;-141.02;100.00;55844.97;5136141;27;20227;-75
2022/01/17 02:06:18;;;;;;;25.67;24.17;;;;;;;-141.02;100.00;55844.97;5135843;27;20235;-74
2022/01/17 02:08:47;;;;;;;23.53;22.20;;;;;;;-141.02;100.00;55844.97;5136012;27;20257;-75
2022/01/17 02:11:14;;;;;;;23.53;22.23;;;;;;;-141.02;100.00;55844.97;5136280;27;20239;-75
2022/01/17 02:13:42;;;;;;;23.70;22.40;;;;;;;-141.02;100.00;55844.97;5135598;27;20224;-75
2022/01/17 02:16:12;;;;;;;23.57;22.27;;;;;;;-141.02;100.00;55844.97;5135614;27;20726;-75
2022/01/17 02:18:40;;;;;;;23.90;22.60;;;;;;;-141.02;100.00;55844.97;5135483;27;20238;-75
2022/01/17 02:21:18;;;;;;;25.90;24.40;;;;;;;-141.02;100.00;55844.97;5135492;27;20609;-75
2022/01/17 02:23:47;;;;;;;25.27;23.83;;;;;;;-141.02;100.00;55844.97;5135859;27;20188;-75
2022/01/17 02:26:15;;;;;;;24.30;23.00;;;;;;;-141.02;100.00;55844.97;5135724;27;20224;-75
2022/01/17 02:28:45;;;;;;;24.57;23.20;;;;;;;-141.02;100.00;55844.97;5135674;27;20288;-75
2022/01/17 02:31:13;;;;;;;26.17;24.67;;;;;;;-141.02;100.00;55844.97;5135656;27;20257;-75
2022/01/17 02:33:40;;;;;;;26.30;24.90;;;;;;;-141.02;100.00;55844.97;5135805;27;20228;-76
2022/01/17 02:36:09;;;;;;;26.33;24.83;;;;;;;-141.02;100.00;55844.97;5135200;27;20228;-75
2022/01/17 02:38:36;;;;;;;26.40;24.90;;;;;;;-141.02;100.00;55844.97;5135523;27;20192;-76
2022/01/17 02:41:03;;;;;;;25.33;23.83;;;;;;;-141.02;100.00;55844.97;5135388;27;20224;-75
2022/01/17 02:43:31;;;;;;;25.40;23.90;;;;;;;-141.02;100.00;55844.97;5135428;27;20257;-76
2022/01/17 02:48:43;;;;;;;25.60;24.20;;;;;;;-141.02;100.00;55844.97;5135417;27;20191;-76
2022/01/17 02:51:12;;;;;;;25.70;24.30;;;;;;;-141.02;100.00;55844.97;5135217;27;20189;-75
2022/01/17 02:53:41;;;;;;;24.00;22.60;;;;;;;-141.02;100.00;55844.97;5134799;27;20223;-75
2022/01/17 02:56:09;;;;;;;24.03;22.63;;;;;;;-141.02;100.00;55844.97;5135016;27;20646;-75
2022/01/17 02:58:37;;;;;;;24.13;22.83;;;;;;;-141.02;100.00;55844.97;5134735;27;20202;-76
2022/01/17 03:01:07;;;;;;;24.27;22.97;;;;;;;-141.02;100.00;55844.97;5135114;27;20249;-75
2022/01/17 03:03:35;;;;;;;34.37;32.20;;;;;;;-141.02;100.00;55844.97;5135235;27;20192;-75
2022/01/17 03:06:02;;;;;;;23.73;22.43;;;;;;;-141.02;100.00;55844.97;5134949;27;20257;-75
2022/01/17 03:08:34;;;;;;;25.03;23.63;;;;;;;-141.02;100.00;55844.97;5134634;27;20287;-75
2022/01/17 03:11:05;;;;;;;26.23;24.73;;;;;;;-141.02;100.00;55844.97;5134956;27;20279;-75
2022/01/17 03:13:34;;;;;;;26.23;24.73;;;;;;;-141.02;100.00;55844.97;5134258;27;20299;-75
2022/01/17 03:16:04;;;;;;;25.97;24.47;;;;;;;-141.02;100.00;55844.97;5134413;27;20727;-75
2022/01/17 03:18:33;;;;;;;26.10;24.60;;;;;;;-141.02;100.00;55844.97;5134479;27;20694;-75
2022/01/17 03:21:01;;;;;;;25.60;24.10;;;;;;;-141.02;100.00;55844.97;5134261;27;20283;-75
2022/01/17 03:23:30;;;;;;;24.93;23.53;;;;;;;-141.02;100.00;55844.97;5135117;27;20288;-75
2022/01/17 03:25:57;;;;;;;25.90;24.40;;;;;;;-141.02;100.00;55844.97;5134199;27;20199;-74
2022/01/17 03:28:25;;;;;;;26.07;24.57;;;;;;;-141.02;100.00;55844.97;5134511;27;20188;-75
2022/01/17 03:30:52;;;;;;;26.33;24.83;;;;;;;-141.02;100.00;60801.19;5134064;27;20196;-75
2022/01/17 03:33:19;;;;;;;25.40;24.00;;;;;;;-141.02;100.00;55844.97;5134321;27;20307;-75
2022/01/17 03:35:47;;;;;;;26.37;24.73;;;;;;;-141.02;100.00;55844.97;5134043;27;20648;-75
2022/01/17 03:38:19;;;;;;;26.73;25.13;;;;;;;-141.02;100.00;55844.97;5134500;27;20241;-75
2022/01/17 03:40:50;;;;;;;36.70;31.10;;;;;;;-141.02;100.00;55844.97;5134148;27;20195;-75
2022/01/17 03:43:18;;;;;;;24.50;23.10;;;;;;;-141.02;100.00;55844.97;5134270;27;20192;-75
2022/01/17 03:45:46;;;;;;;24.10;22.80;;;;;;;-141.02;100.00;55844.97;5133923;27;20192;-75
2022/01/17 03:48:14;;;;;;;23.43;22.13;;;;;;;-141.02;100.00;55844.97;5134290;27;20197;-75
2022/01/17 03:50:41;;;;;;;23.97;22.67;;;;;;;-141.02;100.00;55844.97;5134075;27;20228;-75
2022/01/17 03:53:08;;;;;;;25.10;23.70;;;;;;;-141.02;100.00;55844.97;5133884;27;20192;-75
2022/01/17 03:55:35;;;;;;;27.43;25.83;;;;;;;-141.02;100.00;55844.97;5133910;27;20192;-75
2022/01/17 03:58:05;;;;;;;27.10;25.50;;;;;;;-141.02;100.00;55844.97;5133956;27;20292;-75
2022/01/17 04:00:34;;;;;;;26.03;24.53;;;;;;;-141.02;100.00;55844.97;5133535;27;20654;-75
2022/01/17 04:03:01;;;;;;;25.73;24.20;;;;;;;-141.02;100.00;55844.97;5133869;27;20192;-75
2022/01/17 04:05:28;;;;;;;26.00;24.50;;;;;;;-141.02;100.00;55844.97;5133799;27;20253;-75
2022/01/17 04:07:55;;;;;;;25.33;23.83;;;;;;;-141.02;100.00;55844.97;5133768;27;20197;-75
2022/01/17 04:10:22;;;;;;;27.43;25.83;;;;;;;-141.02;100.00;55844.97;5133772;27;20275;-75
2022/01/17 04:12:49;;;;;;;26.20;24.70;;;;;;;-141.02;100.00;55844.97;5133418;27;20192;-75
2022/01/17 04:15:18;;;;;;;28.47;26.87;;;;;;;-141.02;100.00;55844.97;5133325;27;20227;-75
2022/01/17 04:17:45;;;;;;;27.70;26.10;;;;;;;-141.02;100.00;55844.97;5133184;27;20774;-75
2022/01/17 04:20:24;;;;;;;24.80;23.50;;;;;;;-141.02;100.00;55844.97;5133315;27;20196;-74
2022/01/17 04:22:53;;;;;;;28.60;25.97;;;;;;;-141.02;100.00;55844.97;5133717;27;20184;-75
2022/01/17 04:25:20;;;;;;;23.70;22.40;;;;;;;-141.02;100.00;55844.97;5132761;27;20196;-75
2022/01/17 04:27:49;;;;;;;22.70;21.40;;;;;;;-141.02;100.00;55844.97;5133152;27;20649;-74
2022/01/17 04:30:18;;;;;;;24.10;22.53;;;;;;;-141.02;100.00;55844.97;5133467;27;20220;-75
2022/01/17 04:32:46;;;;;;;24.33;22.93;;;;;;;-141.02;100.00;55844.97;5133422;27;20279;-75
2022/01/17 04:35:20;;;;;;;24.37;22.97;;;;;;;-141.02;100.00;55844.97;5133013;27;20266;-75
2022/01/17 04:37:49;;;;;;;23.67;22.27;;;;;;;-141.02;100.00;55844.97;5133114;27;20189;-74
2022/01/17 04:40:16;;;;;;;23.47;22.17;;;;;;;-141.02;100.00;55844.97;5133021;27;20188;-74
2022/01/17 04:42:45;;;;;;;24.53;23.13;;;;;;;-141.02;100.00;55844.97;5133531;27;20201;-74
2022/01/17 04:45:15;;;;;;;24.80;23.30;;;;;;;-141.02;100.00;55844.97;5132959;28;20203;-74
2022/01/17 04:47:46;;;;;;;24.67;23.27;;;;;;;-141.02;100.00;55844.97;5133586;27;20273;-75
2022/01/17 04:50:15;;;;;;;24.93;23.37;;;;;;;-141.02;100.00;55844.97;5133267;28;20218;-75
2022/01/17 04:52:43;;;;;;;25.07;23.63;;;;;;;-141.02;100.00;55844.97;5132918;28;20197;-74
2022/01/17 04:55:14;;;;;;;27.40;25.63;;;;;;;-141.02;100.00;55844.97;5133154;27;20712;-74
2022/01/17 04:57:41;;;;;;;25.30;23.90;;;;;;;-141.02;100.00;55844.97;5133140;28;20276;-75
2022/01/17 05:00:11;;;;;;;24.57;23.17;;;;;;;-141.02;100.00;55844.97;5133148;27;20279;-74
2022/01/17 05:02:39;;;;;;;24.87;23.37;;;;;;;-141.02;100.00;55844.97;5132817;27;20707;-75
2022/01/17 05:05:08;;;;;;;26.70;25.00;;;;;;;-141.02;100.00;55844.97;5132769;28;20200;-75
2022/01/17 05:07:36;;;;;;;25.60;24.20;;;;;;;-141.02;100.00;55844.97;5133019;28;20228;-75
2022/01/17 05:10:06;;;;;;;26.63;25.13;;;;;;;-141.02;100.00;55844.97;5132732;28;20247;-75
2022/01/17 05:12:34;;;;;;;26.00;24.50;;;;;;;-141.02;100.00;55844.97;5133058;28;20188;-75
2022/01/17 05:15:01;;;;;;;25.43;23.93;;;;;;;-141.02;100.00;55844.97;5132609;28;20224;-75
2022/01/17 05:20:22;;;;;;;24.97;23.57;;;;;;;-141.02;100.00;55844.97;5084147;27;20765;-75
2022/01/17 05:22:50;;;;;;;24.73;23.33;;;;;;;-141.02;100.00;55844.97;5132902;27;20193;-75
2022/01/17 05:25:17;;;;;;;23.53;22.23;;;;;;;-141.02;100.00;55844.97;5132591;28;20722;-74
2022/01/17 05:27:44;;;;;;;24.70;23.30;;;;;;;-141.02;100.00;55844.97;5132556;28;20243;-75
2022/01/17 05:30:14;;;;;;;25.90;24.40;;;;;;;-141.02;100.00;55844.97;5132511;28;20236;-75
2022/01/17 05:32:42;;;;;;;28.53;26.93;;;;;;;-141.02;100.00;55844.97;5132829;28;20255;-75
2022/01/17 05:35:10;;;;;;;25.47;23.97;;;;;;;-141.02;100.00;55844.97;5133172;27;20315;-74
2022/01/17 05:37:39;;;;;;;29.57;27.87;;;;;;;-141.02;100.00;55844.97;5136393;27;20189;-74
2022/01/17 05:40:09;;;;;;;26.80;25.30;;;;;;;-141.02;100.00;55844.97;5136549;27;20279;-74
2022/01/17 05:42:36;;;;;;;27.20;25.70;;;;;;;-141.02;100.00;55844.97;5136305;27;20630;-75
2022/01/17 05:45:04;;;;;;;25.00;23.60;;;;;;;-141.02;100.00;55844.97;5136566;27;20224;-74
2022/01/17 05:47:31;;;;;;;25.40;24.00;;;;;;;-141.02;100.00;55844.97;5136552;27;20193;-75
2022/01/17 05:50:01;;;;;;;25.57;24.17;;;;;;;-141.02;100.00;55844.97;5136720;27;20232;-75
2022/01/17 05:52:28;;;;;;;25.67;24.27;;;;;;;-141.02;100.00;55844.97;5136075;27;20199;-75
2022/01/17 05:54:57;;;;;;;26.83;25.33;;;;;;;-141.02;100.00;55844.97;5135951;27;20311;-75
2022/01/17 05:57:24;;;;;;;26.93;25.43;;;;;;;-141.02;100.00;55844.97;5136243;27;20279;-75
2022/01/17 05:59:51;;;;;;;26.77;25.27;;;;;;;-141.02;100.00;55844.97;5136343;27;20239;-75
2022/01/17 06:02:19;;;;;;;24.50;23.20;;;;;;;-141.02;100.00;55844.97;5135921;27;20279;-75
2022/01/17 06:04:46;;;;;;;24.23;22.93;;;;;;;-141.02;100.00;55844.97;5136146;27;20257;-75
2022/01/17 06:07:13;;;;;;;23.13;21.83;;;;;;;-141.02;100.00;55844.97;5135787;27;20666;-75
2022/01/17 06:09:40;;;;;;;24.13;22.83;;;;;;;-141.02;100.00;55844.97;5135711;27;20228;-74
2022/01/17 06:12:10;;;;;;;25.13;23.83;;;;;;;-141.02;100.00;55844.97;5136047;27;20262;-75
2022/01/17 06:14:38;;;;;;;23.70;22.40;;;;;;;-141.02;100.00;55844.97;5135558;27;20314;-75
2022/01/17 06:17:05;;;;;;;29.73;27.93;;;;;;;-141.02;100.00;55844.97;5135697;27;20226;-75
2022/01/17 06:19:32;;;;;;;26.73;25.23;;;;;;;-141.02;100.00;55844.97;5135928;27;20250;-75
2022/01/17 06:21:59;;;;;;;27.77;26.17;;;;;;;-141.02;100.00;55844.97;5135607;27;20224;-75
2022/01/17 06:24:26;;;;;;;25.33;23.93;;;;;;;-141.02;100.00;55844.97;5135891;27;20188;-75
2022/01/17 06:26:53;;;;;;;27.07;25.47;;;;;;;-141.02;100.00;55844.97;5135355;27;20629;-75
2022/01/17 06:29:21;;;;;;;26.70;25.20;;;;;;;-141.02;100.00;55844.97;5135438;27;20192;-75
2022/01/17 06:31:48;;;;;;;26.00;24.60;;;;;;;-141.02;100.00;55844.97;5135362;27;20249;-75
2022/01/17 06:34:15;;;;;;;25.63;24.23;;;;;;;-141.02;100.00;55844.97;5135495;27;20334;-75
2022/01/17 06:36:43;;;;;;;26.17;24.67;;;;;;;-141.02;100.00;55844.97;5135557;27;20276;-75
2022/01/17 06:39:11;;;;;;;24.67;23.37;;;;;;;-141.02;100.00;55844.97;5135198;27;20192;-75
2022/01/17 06:41:38;;;;;;;25.37;23.87;;;;;;;-141.02;100.00;55844.97;5135469;27;20196;-75
2022/01/17 06:44:06;;;;;;;25.87;24.40;;;;;;;-141.02;100.00;55844.97;5135421;27;20214;-76
2022/01/17 06:46:36;;;;;;;26.10;24.60;;;;;;;-141.02;100.00;55844.97;5134540;27;20274;-75
2022/01/17 06:49:03;;;;;;;27.27;25.40;;;;;;;-141.02;100.00;55844.97;5135257;27;20570;-74
2022/01/17 06:51:30;;;;;;;26.27;24.67;;;;;;;-141.02;100.00;55844.97;5134930;27;20228;-75
2022/01/17 06:53:57;;;;;;;25.80;24.37;;;;;;;-141.02;100.00;55844.97;5135200;27;20271;-74
2022/01/17 06:56:24;;;;;;;27.67;25.97;;;;;;;-141.02;100.00;55844.97;5135117;27;20188;-75
2022/01/17 06:58:51;;;;;;;27.23;25.67;;;;;;;-141.02;100.00;55844.97;5134750;27;20674;-75
2022/01/17 07:01:20;;;;;;;26.63;25.03;;;;;;;-141.02;100.00;55844.97;5135035;27;20276;-75
2022/01/17 07:03:50;;;;;;;25.40;24.00;;;;;;;-141.02;100.00;55844.97;5134668;27;20197;-76
2022/01/17 07:06:17;;;;;;;29.07;27.47;;;;;;;-141.02;100.00;55844.97;5134797;27;20212;-75
2022/01/17 07:08:45;;;;;;;28.87;27.27;;;;;;;-141.02;100.00;55844.97;5134873;27;20196;-75
2022/01/17 07:11:13;;;;;;;29.30;27.70;;;;;;;-141.02;100.00;55844.97;5134480;27;20243;-75
2022/01/17 07:13:39;;;;;;;30.53;28.73;;;;;;;-141.02;100.00;55844.97;5134448;27;20193;-76
2022/01/17 07:16:07;;;;;;;29.80;28.13;;;;;;;-141.02;100.00;55844.97;5135166;27;20769;-77
2022/01/17 07:18:34;;;;;;;28.03;26.53;;;;;;;-141.02;100.00;55844.97;5134442;27;20229;-76
2022/01/17 07:21:02;;;;;;;31.77;29.70;;;;;;;-141.02;100.00;55844.97;5134313;27;20570;-76
2022/01/17 07:23:29;;;;;;;30.30;28.60;;;;;;;-141.02;100.00;55844.97;5134684;27;20196;-77
2022/01/17 07:25:56;;;;;;;32.33;29.60;;;;;;;-141.02;100.00;55844.97;5134253;27;20192;-75
2022/01/17 07:28:24;;;;;;;36.10;33.87;;;;;;;-141.02;100.00;55844.97;5134545;27;20192;-77
2022/01/17 07:30:52;;;;;;;26.80;25.37;;;;;;;-141.02;100.00;55844.97;5134486;27;20192;-76
2022/01/17 07:33:21;;;;;;;26.97;25.37;;;;;;;-141.02;100.00;55844.97;5134065;27;20551;-76
2022/01/17 07:35:49;;;;;;;25.27;23.67;;;;;;;-141.02;100.00;55844.97;5134084;27;20298;-75
2022/01/17 07:38:17;;;;;;;26.23;24.63;;;;;;;-141.02;100.00;55844.97;5134061;27;20196;-76
2022/01/17 07:40:45;;;;;;;25.67;24.03;;;;;;;-141.02;100.00;55844.97;5134812;27;20189;-75
2022/01/17 07:43:12;;;;;;;26.63;24.97;;;;;;;-141.02;100.00;55844.97;5133900;27;20256;-76
2022/01/17 07:45:46;;;;;;;25.70;24.00;;;;;;;-141.02;100.00;55844.97;5133903;27;20200;-76
2022/01/17 07:48:45;;;;;;;29.20;27.00;;;;;;;-141.02;100.00;55844.97;5133804;27;20190;-76
2022/01/17 07:51:11;;;;;;;29.17;27.17;;;;;;;-141.02;100.00;55844.97;5133570;27;20196;-77
2022/01/17 07:53:40;;;;;;;29.10;27.40;;;;;;;-141.02;100.00;55844.97;5134081;27;20594;-76
2022/01/17 07:56:07;;;;;;;31.50;29.07;;;;;;;-141.02;100.00;55844.97;5133586;27;20584;-77
2022/01/17 07:58:34;;;;;;;27.90;26.30;;;;;;;-141.02;100.00;55844.97;5133821;27;20572;-77
2022/01/17 08:01:01;;;;;;;27.57;25.57;;;;;;;-141.02;100.00;55844.97;5133713;27;20655;-77
2022/01/17 08:03:28;;;;;;;26.93;25.43;;;;;;;-141.02;100.00;55844.97;5133877;27;20192;-76
2022/01/17 08:05:55;;;;;;;26.27;24.53;;;;;;;-141.02;100.00;55844.97;5133532;27;20193;-77
2022/01/17 08:08:22;;;;;;;30.33;28.03;;;;;;;-141.02;100.00;55844.97;5133792;27;20280;-77
2022/01/17 08:10:51;;;;;;;29.07;26.93;;;;;;;-141.02;100.00;55844.97;5133521;27;20196;-77
2022/01/17 08:13:19;;;;;;;28.70;26.77;;;;;;;-141.02;100.00;55844.97;5133456;27;20188;-76
2022/01/17 08:15:46;;;;;;;30.47;28.20;;;;;;;-141.02;100.00;55844.97;5133218;27;20598;-75
2022/01/17 08:18:14;;;;;;;28.63;26.83;;;;;;;-141.02;100.00;55844.97;5133285;27;20277;-78
2022/01/17 08:20:41;;;;;;;25.33;23.93;;;;;;;-141.02;100.00;55844.97;5133348;27;20204;-78
2022/01/17 08:23:09;;;;;;;30.87;28.63;;;;;;;-141.02;100.00;55844.97;5133583;27;20188;-77
2022/01/17 08:25:37;;;;;;;27.90;26.13;;;;;;;-141.02;100.00;55844.97;5133591;27;20214;-77
2022/01/17 08:28:06;;;;;;;30.23;27.93;;;;;;;-141.02;100.00;55844.97;5133250;27;20238;-78
2022/01/17 08:30:34;;;;;;;29.80;27.37;;;;;;;-141.02;100.00;55844.97;5134704;27;20188;-82
2022/01/17 08:33:01;;;;;;;27.87;25.93;;;;;;;-141.02;100.00;55844.97;5134500;27;20221;-79
2022/01/17 08:35:28;;;;;;;27.40;25.60;;;;;;;-141.02;100.00;55844.97;5133494;27;20259;-79
2022/01/17 08:37:55;;;;;;;29.73;26.80;;;;;;;-141.02;100.00;55844.97;5133906;27;20251;-82
2022/01/17 08:40:23;;;;;;;30.63;28.07;;;;;;;-141.02;100.00;55844.97;5133103;27;20240;-80
2022/01/17 08:42:50;;;;;;;28.50;26.07;;;;;;;-141.02;100.00;55844.97;5133589;27;20663;-78
2022/01/17 08:45:21;;;;;;;23.57;22.27;;;;;;;-141.02;100.00;55844.97;5133199;27;20196;-79
2022/01/17 08:47:49;;;;;;;25.27;23.70;;;;;;;-141.02;100.00;55844.97;5133029;28;20312;-80
2022/01/17 08:50:18;;;;;;;25.70;24.03;;;;;;;-141.02;100.00;55844.97;5133184;28;20214;-81
2022/01/17 08:52:45;;;;;;;28.03;26.13;;;;;;;-141.02;100.00;55844.97;5132945;28;20275;-81
2022/01/17 08:55:12;;;;;;;26.53;24.83;;;;;;;-141.02;100.00;55844.97;5133149;27;20220;-81
2022/01/17 08:57:39;;;;;;;25.87;24.43;;;;;;;-141.02;100.00;55844.97;5133370;27;20727;-80
2022/01/17 09:00:10;;;;;;;26.80;24.50;;;;;;;-141.02;100.00;55844.97;5133031;27;20192;-81
2022/01/17 09:02:39;;;;;;;26.27;24.80;;;;;;;-141.02;100.00;55844.97;5133791;27;20185;-81
2022/01/17 09:05:07;;;;;;;28.50;26.03;;;;;;;-141.02;100.00;55844.97;5133363;28;20723;-81
2022/01/17 09:07:34;;;;;;;30.83;28.23;;;;;;;-141.02;100.00;55844.97;5133245;28;20235;-80
2022/01/17 09:10:01;;;;;;;28.67;26.60;;;;;;;-141.02;94.51;84526.94;5134601;27;20245;-81
2022/01/17 09:12:28;;;;;;;26.60;24.97;;;;;;;-141.02;100.00;55844.97;5139634;27;20275;-78
2022/01/17 09:14:55;;;;;;;26.23;24.53;;;;;;;-141.02;100.00;55844.97;5138651;27;20224;-80
2022/01/17 09:17:22;;;;;;;28.43;26.33;;;;;;;-141.02;100.00;55844.97;5138118;27;20300;-80
2022/01/17 09:19:51;;;;;;;28.27;25.97;;;;;;;-141.02;100.00;55844.97;5137783;27;20204;-80
2022/01/17 09:22:18;;;;;;;26.80;24.90;;;;;;;-141.02;100.00;55844.97;5137824;27;20196;-81
2022/01/17 09:24:45;;;;;;;30.17;27.27;;;;;;;-141.02;100.00;55844.97;5137860;27;20257;-82
2022/01/17 09:27:15;;;;;;;27.53;25.30;;;;;;;-141.02;100.00;55844.97;5138047;27;20253;-80
2022/01/17 09:29:42;;;;;;;25.87;24.07;;;;;;;-141.02;100.00;55844.97;5137595;27;20193;-82
2022/01/17 09:32:09;;;;;;;26.77;24.90;;;;;;;-141.02;100.00;55844.97;5136733;27;20666;-80
2022/01/17 09:34:36;;;;;;;25.83;24.03;;;;;;;-141.02;100.00;55844.97;5136968;27;20650;-79
2022/01/17 09:37:05;;;;;;;27.30;25.57;;;;;;;-141.02;100.00;55844.97;5136392;27;20227;-80
2022/01/17 09:39:33;;;;;;;29.13;27.13;;;;;;;-141.02;100.00;55844.97;5136731;27;20275;-80
2022/01/17 09:42:00;;;;;;;30.20;27.93;;;;;;;-141.02;100.00;55844.97;5136465;27;20257;-77
2022/01/17 09:44:27;;;;;;;29.57;27.47;;;;;;;-141.02;100.00;55844.97;5137393;27;20193;-79
2022/01/17 09:46:56;;;;;;;27.53;25.73;;;;;;;-141.02;100.00;55844.97;5136754;27;20199;-80
2022/01/17 09:49:30;;;;;;;28.63;26.63;;;;;;;-141.02;100.00;55844.97;5136891;27;20196;-79
2022/01/17 09:54:46;;;;;;;27.60;25.13;;;;;;;-141.02;100.00;55844.97;5136875;27;20707;-79
2022/01/17 09:57:15;;;;;;;28.73;26.67;;;;;;;-141.02;100.00;55844.97;5136667;27;20200;-80
2022/01/17 09:59:42;;;;;;;27.43;25.73;;;;;;;-141.02;100.00;55844.97;5137122;27;20690;-80
2022/01/17 10:02:11;;;;;;;27.60;25.90;;;;;;;-141.02;100.00;55844.97;5136980;27;20192;-80
2022/01/17 10:04:39;;;;;;;27.83;25.60;;;;;;;-141.02;100.00;55844.97;5136665;27;20675;-81
2022/01/17 10:07:07;;;;;;;30.37;27.93;;;;;;;-141.02;100.00;55844.97;5137210;27;20203;-74
2022/01/17 10:09:36;;;;;;;29.53;27.47;;;;;;;-141.02;100.00;55844.97;5137041;27;20196;-79
2022/01/17 10:12:10;;;;;;;27.93;26.33;;;;;;;-141.02;100.00;55844.97;5136596;27;20624;-80
2022/01/17 10:14:40;;;;;;;28.43;26.60;;;;;;;-141.02;100.00;55844.97;5136339;27;20245;-79
2022/01/17 10:17:09;;;;;;;28.77;26.97;;;;;;;-141.02;100.00;55844.97;5137112;27;20655;-79
2022/01/17 10:19:37;;;;;;;27.70;26.03;;;;;;;-141.02;100.00;55844.97;5137954;27;20277;-80
2022/01/17 10:22:11;;;;;;;29.23;27.40;;;;;;;-141.02;100.00;55844.97;5135306;27;20680;-80
2022/01/17 10:24:48;;;;;;;28.23;26.20;;;;;;;-141.02;100.00;55844.97;5137014;27;20201;-80
2022/01/17 10:35:45;;;;;;;28.23;25.67;;;;;;;-141.02;100.00;55844.97;5093351;28;20222;-77
2022/01/17 10:38:15;;;;;;;27.97;26.17;;;;;;;-141.02;100.00;55844.97;5125372;27;20226;-82
2022/01/17 10:40:44;;;;;;;27.80;25.33;;;;;;;-141.02;100.00;55844.97;5135881;27;20718;-79
2022/01/17 10:43:22;;;;;;;27.70;25.67;;;;;;;-141.02;100.00;55844.97;5135414;27;20249;-79
2022/01/17 10:45:50;;;;;;;27.63;25.93;;;;;;;-141.02;100.00;55844.97;5135609;27;20541;-79
2022/01/17 10:48:17;;;;;;;30.07;27.90;;;;;;;-141.02;100.00;55844.97;5135734;27;20189;-80
2022/01/17 10:50:47;;;;;;;27.47;25.77;;;;;;;-141.02;100.00;55844.97;5136032;27;20747;-80
2022/01/17 10:53:17;;;;;;;28.03;26.20;;;;;;;-141.02;100.00;55844.97;5136174;27;20192;-79
2022/01/17 10:55:48;;;;;;;28.17;26.27;;;;;;;-141.02;89.99;84480.31;5136458;27;20277;-77
2022/01/17 10:58:20;;;;;;;26.07;24.53;;;;;;;-141.02;89.02;84495.84;5135749;27;20758;-76
2022/01/17 11:00:51;;;;;;;27.83;25.83;;;;;;;-141.02;100.00;55844.97;5136471;27;20185;-78
2022/01/17 11:03:21;;;;;;;26.53;25.03;;;;;;;-141.02;100.00;55844.97;5135523;27;20196;-81
2022/01/17 11:05:52;;;;;;;29.83;27.53;;;;;;;-141.02;87.07;84515.28;5135936;27;20572;-81
2022/01/17 11:08:21;;;;;;;25.00;23.50;;;;;;;-141.02;100.00;55844.97;5137034;27;20197;-82
2022/01/17 11:10:53;;;;;;;28.73;26.93;;;;;;;-141.02;100.00;55844.97;5137210;27;20621;-80
2022/01/17 11:13:22;;;;;;;27.13;25.20;;;;;;;-141.02;100.00;55844.97;5136297;27;20688;-79
2022/01/17 11:16:01;;;;;;;27.93;26.13;;;;;;;-141.02;100.00;55844.97;5135474;27;20256;-80
2022/01/17 11:18:30;;;;;;;27.87;26.23;;;;;;;-141.02;100.00;55844.97;5135141;27;20255;-78
2022/01/17 11:20:59;;;;;;;27.73;26.13;;;;;;;-141.02;100.00;55844.97;5135386;27;20261;-79
2022/01/17 11:23:27;;;;;;;27.90;26.20;;;;;;;-141.02;100.00;55844.97;5135476;27;20200;-77